Caddo Mills, TX

7:47 AM CDT on August 30, 2015 (GMT -0500)
Caddo Mills Countryside | | Change Station
CLOSE
Current Station
Personal Weather Station
Location: Caddo Mills, TX
Elevation: 594 ft
Nearby Weather Stations

Elev 594 ft 33.10 °N, 96.27 °W | Updated 16 seconds ago

Partly Cloudy
Partly Cloudy
74.7 °F
Feels Like 75 °F
N
6.9
Wind Variable Wind from South
Gusts 6.9 mph

Today
High -- | Low -- °F
--% Chance of Precip.
Yesterday
High -- | Low -- °F
Precip. -- in
6:57 AM 7:52 PM
Full, 99% visible
Pressure 29.99 in
Visibility 10.0 miles
Clouds Scattered Clouds 11000 ft
Heat Index 75 °F
Dew Point 68 °F
Humidity 80%
Rainfall 0.00 in
Snow Depth Not available.
UV 0 out of 12
Pollen 8.70 out of 12
Air Quality Not available.
Flu Activity Not available.
METAR KGVT 301235Z AUTO 20006KT 10SM SCT110 24/18 A2999 RMK AO2
Pressure 29.99 in
Visibility 10.0 miles
Clouds Scattered Clouds 11000 ft
Heat Index 75 °F
Dew Point 68 °F
Humidity 80%
Rainfall 0.00 in
Snow Depth Not available.
UV 0 out of 12
Pollen 8.70 out of 12
Air Quality Not available.
Flu Activity Not available.
METAR KGVT 301235Z AUTO 20006KT 10SM SCT110 24/18 A2999 RMK AO2
Nowcast | as of 6:29 am CDT on August 30, 2015

Areas of sprinkles and very light rain will continue through mid morning across north and central Texas....especially along and south of a Breckenridge to Waxahachie to Athens line. Rainfall amounts are expected to remain very light with totals generally less than one tenth of an inch. Otherwise...conditions will remain mild with temperatures in the 70s and light and variable winds through sunrise. Thereafter...temperatures are expected to climb into the 80s with partly sunny skies.

×

10-Day Weather Forecast

×

Almanac

Astronomy

Aug. 30, 2015 Rise Set
Actual Time
Civil Twilight
Nautical Twilight
Astronomical Twilight
Moon
Length of Visible Light
Length of Day
Tomorrow will be .
, % of the Moon is Illuminated

Today's Extremes

State Highs State Lows

Community

WunderPhotos

Upload Photos

1,850,940 photos uploaded!

WunderBlogs® & News

Nearby

Air Quality

  Air Quality AQ Index Pollutant
Not available.

Snow Depth

Station Depth Elevation

Earthquake Activity

City Distance Mag. Time & Date
Minimum magnitude displayed is 2.5.

Coastal Water Temperatures

Place Temperature

Stations

Nearby Weather Stations

Station Location Temp. Windchill Dew Point Humidity Wind Precip. Elev Updated Type